sensor_id;sensor_type;location;lat;lon;timestamp;P1;durP1;ratioP1;P2;durP2;ratioP2
28774;SDS011;15926;51.348;6.596;2022-07-21T00:01:07;8.85;;;8.15;;
28774;SDS011;15926;51.348;6.596;2022-07-21T00:03:33;10.88;;;9.00;;
28774;SDS011;15926;51.348;6.596;2022-07-21T00:06:00;9.80;;;8.60;;
28774;SDS011;15926;51.348;6.596;2022-07-21T00:08:26;9.80;;;8.85;;
28774;SDS011;15926;51.348;6.596;2022-07-21T00:10:52;9.02;;;8.13;;
28774;SDS011;15926;51.348;6.596;2022-07-21T00:13:18;9.43;;;8.43;;
28774;SDS011;15926;51.348;6.596;2022-07-21T00:15:45;9.68;;;8.63;;
28774;SDS011;15926;51.348;6.596;2022-07-21T00:18:11;8.63;;;7.82;;
28774;SDS011;15926;51.348;6.596;2022-07-21T00:20:37;9.77;;;8.65;;
28774;SDS011;15926;51.348;6.596;2022-07-21T00:23:03;9.20;;;8.15;;
28774;SDS011;15926;51.348;6.596;2022-07-21T00:25:29;9.65;;;8.85;;
28774;SDS011;15926;51.348;6.596;2022-07-21T00:27:55;10.27;;;8.60;;
28774;SDS011;15926;51.348;6.596;2022-07-21T00:30:21;10.07;;;9.07;;
28774;SDS011;15926;51.348;6.596;2022-07-21T00:32:47;9.73;;;8.73;;
28774;SDS011;15926;51.348;6.596;2022-07-21T00:35:14;9.57;;;8.73;;
28774;SDS011;15926;51.348;6.596;2022-07-21T00:37:40;9.65;;;8.68;;
28774;SDS011;15926;51.348;6.596;2022-07-21T00:40:07;9.50;;;8.70;;
28774;SDS011;15926;51.348;6.596;2022-07-21T00:42:33;11.52;;;9.85;;
28774;SDS011;15926;51.348;6.596;2022-07-21T00:45:00;10.00;;;9.10;;
28774;SDS011;15926;51.348;6.596;2022-07-21T00:47:27;11.38;;;9.95;;
28774;SDS011;15926;51.348;6.596;2022-07-21T00:49:53;10.00;;;9.00;;
28774;SDS011;15926;51.348;6.596;2022-07-21T00:52:19;11.10;;;9.80;;
28774;SDS011;15926;51.348;6.596;2022-07-21T00:54:46;12.57;;;10.02;;
28774;SDS011;15926;51.348;6.596;2022-07-21T00:57:12;10.80;;;9.70;;
28774;SDS011;15926;51.348;6.596;2022-07-21T00:59:38;10.43;;;9.40;;
28774;SDS011;15926;51.348;6.596;2022-07-21T01:02:05;10.63;;;9.52;;
28774;SDS011;15926;51.348;6.596;2022-07-21T01:04:31;11.57;;;9.70;;
28774;SDS011;15926;51.348;6.596;2022-07-21T01:06:57;10.13;;;8.98;;
28774;SDS011;15926;51.348;6.596;2022-07-21T01:09:23;9.68;;;8.68;;
28774;SDS011;15926;51.348;6.596;2022-07-21T01:11:49;10.52;;;9.52;;
28774;SDS011;15926;51.348;6.596;2022-07-21T01:14:15;13.00;;;8.95;;
28774;SDS011;15926;51.348;6.596;2022-07-21T01:16:41;11.18;;;9.98;;
28774;SDS011;15926;51.348;6.596;2022-07-21T01:19:08;10.73;;;9.55;;
28774;SDS011;15926;51.348;6.596;2022-07-21T01:21:36;12.70;;;9.18;;
28774;SDS011;15926;51.348;6.596;2022-07-21T01:24:02;10.65;;;8.90;;
28774;SDS011;15926;51.348;6.596;2022-07-21T01:26:29;11.45;;;10.25;;
28774;SDS011;15926;51.348;6.596;2022-07-21T01:28:56;12.00;;;9.63;;
28774;SDS011;15926;51.348;6.596;2022-07-21T01:31:22;11.38;;;9.98;;
28774;SDS011;15926;51.348;6.596;2022-07-21T01:33:48;12.25;;;9.48;;
28774;SDS011;15926;51.348;6.596;2022-07-21T01:36:15;12.45;;;9.98;;
28774;SDS011;15926;51.348;6.596;2022-07-21T01:38:41;10.85;;;9.82;;
28774;SDS011;15926;51.348;6.596;2022-07-21T01:41:25;15.00;;;9.95;;
28774;SDS011;15926;51.348;6.596;2022-07-21T01:43:58;12.50;;;9.73;;
28774;SDS011;15926;51.348;6.596;2022-07-21T01:46:24;10.68;;;9.27;;
28774;SDS011;15926;51.348;6.596;2022-07-21T01:48:50;12.95;;;10.10;;
28774;SDS011;15926;51.348;6.596;2022-07-21T01:51:16;10.07;;;9.23;;
28774;SDS011;15926;51.348;6.596;2022-07-21T01:53:42;10.13;;;9.13;;
28774;SDS011;15926;51.348;6.596;2022-07-21T01:56:08;11.55;;;8.93;;
28774;SDS011;15926;51.348;6.596;2022-07-21T01:58:34;15.52;;;9.93;;
28774;SDS011;15926;51.348;6.596;2022-07-21T02:01:00;11.18;;;10.05;;
28774;SDS011;15926;51.348;6.596;2022-07-21T02:03:26;10.13;;;9.10;;
28774;SDS011;15926;51.348;6.596;2022-07-21T02:05:52;14.65;;;10.50;;
28774;SDS011;15926;51.348;6.596;2022-07-21T02:08:18;11.32;;;10.10;;
28774;SDS011;15926;51.348;6.596;2022-07-21T02:10:44;13.15;;;10.75;;
28774;SDS011;15926;51.348;6.596;2022-07-21T02:13:10;12.40;;;10.90;;
28774;SDS011;15926;51.348;6.596;2022-07-21T02:15:36;11.52;;;10.38;;
28774;SDS011;15926;51.348;6.596;2022-07-21T02:18:02;12.50;;;9.93;;
28774;SDS011;15926;51.348;6.596;2022-07-21T02:20:28;10.05;;;9.13;;
28774;SDS011;15926;51.348;6.596;2022-07-21T02:22:54;12.25;;;10.10;;
28774;SDS011;15926;51.348;6.596;2022-07-21T02:25:20;11.27;;;9.93;;
28774;SDS011;15926;51.348;6.596;2022-07-21T02:27:46;10.10;;;9.18;;
28774;SDS011;15926;51.348;6.596;2022-07-21T02:30:12;10.40;;;9.23;;
28774;SDS011;15926;51.348;6.596;2022-07-21T02:32:39;12.10;;;8.82;;
28774;SDS011;15926;51.348;6.596;2022-07-21T02:35:05;10.68;;;9.57;;
28774;SDS011;15926;51.348;6.596;2022-07-21T02:37:31;12.15;;;8.50;;
28774;SDS011;15926;51.348;6.596;2022-07-21T02:39:57;9.68;;;8.68;;
28774;SDS011;15926;51.348;6.596;2022-07-21T02:42:23;8.23;;;7.47;;
28774;SDS011;15926;51.348;6.596;2022-07-21T02:44:49;11.45;;;8.98;;
28774;SDS011;15926;51.348;6.596;2022-07-21T02:47:15;8.68;;;7.63;;
28774;SDS011;15926;51.348;6.596;2022-07-21T02:49:41;10.95;;;8.27;;
28774;SDS011;15926;51.348;6.596;2022-07-21T02:52:10;9.95;;;8.52;;
28774;SDS011;15926;51.348;6.596;2022-07-21T02:54:36;18.67;;;9.27;;
28774;SDS011;15926;51.348;6.596;2022-07-21T02:57:02;9.57;;;8.68;;
28774;SDS011;15926;51.348;6.596;2022-07-21T02:59:28;16.60;;;9.10;;
28774;SDS011;15926;51.348;6.596;2022-07-21T03:01:54;9.20;;;8.25;;
28774;SDS011;15926;51.348;6.596;2022-07-21T03:04:20;14.50;;;9.63;;
28774;SDS011;15926;51.348;6.596;2022-07-21T03:06:46;9.48;;;8.45;;
28774;SDS011;15926;51.348;6.596;2022-07-21T03:09:12;11.07;;;9.30;;
28774;SDS011;15926;51.348;6.596;2022-07-21T03:11:38;11.68;;;9.75;;
28774;SDS011;15926;51.348;6.596;2022-07-21T03:14:04;11.55;;;8.90;;
28774;SDS011;15926;51.348;6.596;2022-07-21T03:16:30;10.52;;;8.80;;
28774;SDS011;15926;51.348;6.596;2022-07-21T03:18:56;11.38;;;9.13;;
28774;SDS011;15926;51.348;6.596;2022-07-21T03:21:22;9.68;;;8.68;;
28774;SDS011;15926;51.348;6.596;2022-07-21T03:23:48;11.32;;;10.13;;
28774;SDS011;15926;51.348;6.596;2022-07-21T03:26:14;11.13;;;10.02;;
28774;SDS011;15926;51.348;6.596;2022-07-21T03:28:41;14.35;;;11.43;;
28774;SDS011;15926;51.348;6.596;2022-07-21T03:31:08;13.65;;;10.88;;
28774;SDS011;15926;51.348;6.596;2022-07-21T03:33:34;15.38;;;11.40;;
28774;SDS011;15926;51.348;6.596;2022-07-21T03:36:00;14.68;;;11.52;;
28774;SDS011;15926;51.348;6.596;2022-07-21T03:38:27;16.13;;;11.45;;
28774;SDS011;15926;51.348;6.596;2022-07-21T03:40:53;14.00;;;11.75;;
28774;SDS011;15926;51.348;6.596;2022-07-21T03:43:19;16.98;;;12.40;;
28774;SDS011;15926;51.348;6.596;2022-07-21T03:45:45;16.15;;;12.27;;
28774;SDS011;15926;51.348;6.596;2022-07-21T03:48:11;15.93;;;11.98;;
28774;SDS011;15926;51.348;6.596;2022-07-21T03:50:38;15.13;;;11.80;;
28774;SDS011;15926;51.348;6.596;2022-07-21T03:53:05;17.52;;;13.02;;
28774;SDS011;15926;51.348;6.596;2022-07-21T03:55:31;17.23;;;13.25;;
28774;SDS011;15926;51.348;6.596;2022-07-21T03:57:59;13.93;;;12.38;;
28774;SDS011;15926;51.348;6.596;2022-07-21T04:00:29;17.00;;;13.13;;
28774;SDS011;15926;51.348;6.596;2022-07-21T04:02:56;19.30;;;13.63;;
28774;SDS011;15926;51.348;6.596;2022-07-21T04:05:22;15.60;;;13.27;;
28774;SDS011;15926;51.348;6.596;2022-07-21T04:07:49;16.08;;;12.48;;
28774;SDS011;15926;51.348;6.596;2022-07-21T04:10:17;16.63;;;13.40;;
28774;SDS011;15926;51.348;6.596;2022-07-21T04:12:43;19.33;;;14.05;;
28774;SDS011;15926;51.348;6.596;2022-07-21T04:15:10;18.70;;;13.80;;
28774;SDS011;15926;51.348;6.596;2022-07-21T04:17:36;17.92;;;13.45;;
28774;SDS011;15926;51.348;6.596;2022-07-21T04:20:03;18.35;;;14.10;;
28774;SDS011;15926;51.348;6.596;2022-07-21T04:22:30;18.85;;;13.75;;
28774;SDS011;15926;51.348;6.596;2022-07-21T04:24:57;14.88;;;13.35;;
28774;SDS011;15926;51.348;6.596;2022-07-21T04:27:24;21.80;;;14.75;;
28774;SDS011;15926;51.348;6.596;2022-07-21T04:29:50;19.35;;;13.80;;
28774;SDS011;15926;51.348;6.596;2022-07-21T04:32:16;17.52;;;14.70;;
28774;SDS011;15926;51.348;6.596;2022-07-21T04:34:42;16.98;;;14.43;;
28774;SDS011;15926;51.348;6.596;2022-07-21T04:37:08;17.73;;;14.82;;
28774;SDS011;15926;51.348;6.596;2022-07-21T04:39:34;15.85;;;14.20;;
28774;SDS011;15926;51.348;6.596;2022-07-21T04:42:00;16.98;;;14.20;;
28774;SDS011;15926;51.348;6.596;2022-07-21T04:44:26;19.45;;;15.77;;
28774;SDS011;15926;51.348;6.596;2022-07-21T04:46:52;17.98;;;14.07;;
28774;SDS011;15926;51.348;6.596;2022-07-21T04:49:18;18.88;;;14.13;;
28774;SDS011;15926;51.348;6.596;2022-07-21T04:51:44;19.15;;;13.77;;
28774;SDS011;15926;51.348;6.596;2022-07-21T04:54:11;19.98;;;14.50;;
28774;SDS011;15926;51.348;6.596;2022-07-21T04:56:39;17.90;;;14.43;;
28774;SDS011;15926;51.348;6.596;2022-07-21T04:59:05;16.48;;;14.18;;
28774;SDS011;15926;51.348;6.596;2022-07-21T05:01:31;15.02;;;13.40;;
28774;SDS011;15926;51.348;6.596;2022-07-21T05:03:57;15.40;;;13.32;;
28774;SDS011;15926;51.348;6.596;2022-07-21T05:06:23;18.98;;;14.13;;
28774;SDS011;15926;51.348;6.596;2022-07-21T05:08:50;15.77;;;13.45;;
28774;SDS011;15926;51.348;6.596;2022-07-21T05:11:16;16.70;;;13.13;;
28774;SDS011;15926;51.348;6.596;2022-07-21T05:13:42;18.67;;;13.68;;
28774;SDS011;15926;51.348;6.596;2022-07-21T05:16:08;16.27;;;12.88;;
28774;SDS011;15926;51.348;6.596;2022-07-21T05:18:34;16.75;;;13.73;;
28774;SDS011;15926;51.348;6.596;2022-07-21T05:21:00;17.85;;;13.55;;
28774;SDS011;15926;51.348;6.596;2022-07-21T05:23:26;17.02;;;14.15;;
28774;SDS011;15926;51.348;6.596;2022-07-21T05:25:52;17.77;;;15.00;;
28774;SDS011;15926;51.348;6.596;2022-07-21T05:28:18;18.77;;;14.57;;
28774;SDS011;15926;51.348;6.596;2022-07-21T05:30:44;20.92;;;14.00;;
28774;SDS011;15926;51.348;6.596;2022-07-21T05:33:10;16.02;;;13.50;;
28774;SDS011;15926;51.348;6.596;2022-07-21T05:35:36;16.98;;;12.60;;
28774;SDS011;15926;51.348;6.596;2022-07-21T05:38:02;14.55;;;12.48;;
28774;SDS011;15926;51.348;6.596;2022-07-21T05:40:28;16.33;;;12.90;;
28774;SDS011;15926;51.348;6.596;2022-07-21T05:42:54;14.80;;;12.95;;
28774;SDS011;15926;51.348;6.596;2022-07-21T05:45:20;15.73;;;12.30;;
28774;SDS011;15926;51.348;6.596;2022-07-21T05:47:46;17.25;;;13.00;;
28774;SDS011;15926;51.348;6.596;2022-07-21T05:50:13;13.95;;;12.23;;
28774;SDS011;15926;51.348;6.596;2022-07-21T05:52:39;13.93;;;12.48;;
28774;SDS011;15926;51.348;6.596;2022-07-21T05:55:05;16.13;;;12.90;;
28774;SDS011;15926;51.348;6.596;2022-07-21T05:57:31;13.82;;;11.80;;
28774;SDS011;15926;51.348;6.596;2022-07-21T05:59:57;13.77;;;11.38;;
28774;SDS011;15926;51.348;6.596;2022-07-21T06:02:24;14.77;;;11.15;;
28774;SDS011;15926;51.348;6.596;2022-07-21T06:04:50;14.93;;;11.90;;
28774;SDS011;15926;51.348;6.596;2022-07-21T06:07:16;13.05;;;11.60;;
28774;SDS011;15926;51.348;6.596;2022-07-21T06:09:42;15.85;;;11.85;;
28774;SDS011;15926;51.348;6.596;2022-07-21T06:12:08;13.35;;;11.15;;
28774;SDS011;15926;51.348;6.596;2022-07-21T06:14:34;12.63;;;11.32;;
28774;SDS011;15926;51.348;6.596;2022-07-21T06:17:00;14.25;;;11.75;;
28774;SDS011;15926;51.348;6.596;2022-07-21T06:19:26;15.38;;;11.63;;
28774;SDS011;15926;51.348;6.596;2022-07-21T06:21:52;11.88;;;10.63;;
28774;SDS011;15926;51.348;6.596;2022-07-21T06:24:18;14.15;;;11.05;;
28774;SDS011;15926;51.348;6.596;2022-07-21T06:26:47;15.30;;;11.32;;
28774;SDS011;15926;51.348;6.596;2022-07-21T06:29:13;14.45;;;11.13;;
28774;SDS011;15926;51.348;6.596;2022-07-21T06:31:39;13.40;;;10.68;;
28774;SDS011;15926;51.348;6.596;2022-07-21T06:34:05;13.50;;;11.05;;
28774;SDS011;15926;51.348;6.596;2022-07-21T06:36:31;12.00;;;10.40;;
28774;SDS011;15926;51.348;6.596;2022-07-21T06:38:57;11.93;;;10.27;;
28774;SDS011;15926;51.348;6.596;2022-07-21T06:41:23;13.50;;;10.70;;
28774;SDS011;15926;51.348;6.596;2022-07-21T06:43:49;12.52;;;10.63;;
28774;SDS011;15926;51.348;6.596;2022-07-21T06:46:15;11.07;;;9.57;;
28774;SDS011;15926;51.348;6.596;2022-07-21T06:48:41;12.55;;;9.95;;
28774;SDS011;15926;51.348;6.596;2022-07-21T06:51:07;11.05;;;10.00;;
28774;SDS011;15926;51.348;6.596;2022-07-21T06:53:33;11.38;;;8.90;;
28774;SDS011;15926;51.348;6.596;2022-07-21T06:55:59;10.85;;;9.15;;
28774;SDS011;15926;51.348;6.596;2022-07-21T06:58:25;12.85;;;8.88;;
28774;SDS011;15926;51.348;6.596;2022-07-21T07:00:52;10.85;;;8.32;;
28774;SDS011;15926;51.348;6.596;2022-07-21T07:03:19;9.88;;;7.85;;
28774;SDS011;15926;51.348;6.596;2022-07-21T07:05:46;9.00;;;7.97;;
28774;SDS011;15926;51.348;6.596;2022-07-21T07:08:12;16.52;;;7.85;;
28774;SDS011;15926;51.348;6.596;2022-07-21T07:10:39;9.25;;;7.68;;
28774;SDS011;15926;51.348;6.596;2022-07-21T07:13:06;9.55;;;7.47;;
28774;SDS011;15926;51.348;6.596;2022-07-21T07:15:32;10.38;;;7.90;;
28774;SDS011;15926;51.348;6.596;2022-07-21T07:17:58;8.60;;;7.07;;
28774;SDS011;15926;51.348;6.596;2022-07-21T07:20:24;13.10;;;6.80;;
28774;SDS011;15926;51.348;6.596;2022-07-21T07:22:50;9.65;;;7.18;;
28774;SDS011;15926;51.348;6.596;2022-07-21T07:25:16;8.77;;;7.68;;
28774;SDS011;15926;51.348;6.596;2022-07-21T07:27:43;8.70;;;7.18;;
28774;SDS011;15926;51.348;6.596;2022-07-21T07:30:09;8.60;;;7.13;;
28774;SDS011;15926;51.348;6.596;2022-07-21T07:32:35;8.13;;;6.97;;
28774;SDS011;15926;51.348;6.596;2022-07-21T07:35:01;9.15;;;6.72;;
28774;SDS011;15926;51.348;6.596;2022-07-21T07:37:28;8.05;;;6.53;;
28774;SDS011;15926;51.348;6.596;2022-07-21T07:39:53;8.18;;;7.05;;
28774;SDS011;15926;51.348;6.596;2022-07-21T07:42:19;11.55;;;7.60;;
28774;SDS011;15926;51.348;6.596;2022-07-21T07:44:45;8.05;;;5.82;;
28774;SDS011;15926;51.348;6.596;2022-07-21T07:47:13;8.18;;;6.15;;
28774;SDS011;15926;51.348;6.596;2022-07-21T07:49:40;8.27;;;6.70;;
28774;SDS011;15926;51.348;6.596;2022-07-21T07:52:06;6.22;;;5.57;;
28774;SDS011;15926;51.348;6.596;2022-07-21T07:54:32;10.38;;;6.95;;
28774;SDS011;15926;51.348;6.596;2022-07-21T07:56:58;6.15;;;5.50;;
28774;SDS011;15926;51.348;6.596;2022-07-21T07:59:24;6.45;;;5.18;;
28774;SDS011;15926;51.348;6.596;2022-07-21T08:01:50;7.53;;;5.07;;
28774;SDS011;15926;51.348;6.596;2022-07-21T08:04:16;6.00;;;5.40;;
28774;SDS011;15926;51.348;6.596;2022-07-21T08:06:42;8.43;;;6.68;;
28774;SDS011;15926;51.348;6.596;2022-07-21T08:09:08;8.52;;;5.90;;
28774;SDS011;15926;51.348;6.596;2022-07-21T08:11:34;5.95;;;5.38;;
28774;SDS011;15926;51.348;6.596;2022-07-21T08:14:00;6.57;;;5.75;;
28774;SDS011;15926;51.348;6.596;2022-07-21T08:16:26;6.07;;;5.47;;
28774;SDS011;15926;51.348;6.596;2022-07-21T08:18:52;6.55;;;5.53;;
28774;SDS011;15926;51.348;6.596;2022-07-21T08:21:18;10.27;;;6.57;;
28774;SDS011;15926;51.348;6.596;2022-07-21T08:23:44;9.23;;;7.13;;
28774;SDS011;15926;51.348;6.596;2022-07-21T08:26:11;8.23;;;6.20;;
28774;SDS011;15926;51.348;6.596;2022-07-21T08:28:37;6.55;;;5.53;;
28774;SDS011;15926;51.348;6.596;2022-07-21T08:31:03;8.25;;;6.65;;
28774;SDS011;15926;51.348;6.596;2022-07-21T08:33:30;9.32;;;5.80;;
28774;SDS011;15926;51.348;6.596;2022-07-21T08:35:56;7.80;;;6.45;;
28774;SDS011;15926;51.348;6.596;2022-07-21T08:38:22;7.10;;;6.13;;
28774;SDS011;15926;51.348;6.596;2022-07-21T08:40:49;8.77;;;5.32;;
28774;SDS011;15926;51.348;6.596;2022-07-21T08:43:15;8.57;;;6.45;;
28774;SDS011;15926;51.348;6.596;2022-07-21T08:45:41;10.07;;;6.65;;
28774;SDS011;15926;51.348;6.596;2022-07-21T08:48:08;7.22;;;6.13;;
28774;SDS011;15926;51.348;6.596;2022-07-21T08:50:36;6.32;;;5.82;;
28774;SDS011;15926;51.348;6.596;2022-07-21T08:53:02;8.35;;;5.95;;
28774;SDS011;15926;51.348;6.596;2022-07-21T08:55:29;7.72;;;5.70;;
28774;SDS011;15926;51.348;6.596;2022-07-21T08:57:55;8.10;;;6.45;;
28774;SDS011;15926;51.348;6.596;2022-07-21T09:00:22;8.05;;;6.18;;
28774;SDS011;15926;51.348;6.596;2022-07-21T09:02:48;7.25;;;5.63;;
28774;SDS011;15926;51.348;6.596;2022-07-21T09:05:14;6.70;;;6.10;;
28774;SDS011;15926;51.348;6.596;2022-07-21T09:07:47;9.93;;;6.95;;
28774;SDS011;15926;51.348;6.596;2022-07-21T09:10:13;6.13;;;5.63;;
28774;SDS011;15926;51.348;6.596;2022-07-21T09:12:53;6.63;;;6.03;;
28774;SDS011;15926;51.348;6.596;2022-07-21T09:15:20;6.07;;;5.45;;
28774;SDS011;15926;51.348;6.596;2022-07-21T09:17:46;6.00;;;5.38;;
28774;SDS011;15926;51.348;6.596;2022-07-21T09:20:28;9.73;;;6.00;;
28774;SDS011;15926;51.348;6.596;2022-07-21T09:23:01;6.22;;;5.18;;
28774;SDS011;15926;51.348;6.596;2022-07-21T09:28:27;9.50;;;6.70;;
28774;SDS011;15926;51.348;6.596;2022-07-21T09:33:20;10.02;;;6.55;;
28774;SDS011;15926;51.348;6.596;2022-07-21T09:35:56;8.10;;;5.70;;
28774;SDS011;15926;51.348;6.596;2022-07-21T09:38:23;9.02;;;6.65;;
28774;SDS011;15926;51.348;6.596;2022-07-21T09:40:49;6.88;;;5.80;;
28774;SDS011;15926;51.348;6.596;2022-07-21T09:43:29;9.85;;;6.55;;
28774;SDS011;15926;51.348;6.596;2022-07-21T09:45:55;8.43;;;7.28;;
28774;SDS011;15926;51.348;6.596;2022-07-21T09:48:37;8.85;;;6.72;;
28774;SDS011;15926;51.348;6.596;2022-07-21T09:51:48;9.75;;;7.07;;
28774;SDS011;15926;51.348;6.596;2022-07-21T09:53:57;9.48;;;6.65;;
28774;SDS011;15926;51.348;6.596;2022-07-21T09:56:23;11.70;;;7.82;;
28774;SDS011;15926;51.348;6.596;2022-07-21T09:58:51;9.00;;;7.18;;
28774;SDS011;15926;51.348;6.596;2022-07-21T10:01:17;9.60;;;7.38;;
28774;SDS011;15926;51.348;6.596;2022-07-21T10:03:44;11.43;;;8.32;;
28774;SDS011;15926;51.348;6.596;2022-07-21T10:06:11;11.85;;;8.07;;
28774;SDS011;15926;51.348;6.596;2022-07-21T10:08:37;9.13;;;8.18;;
28774;SDS011;15926;51.348;6.596;2022-07-21T10:11:07;9.80;;;8.55;;
28774;SDS011;15926;51.348;6.596;2022-07-21T10:13:34;10.13;;;9.13;;
28774;SDS011;15926;51.348;6.596;2022-07-21T10:16:01;16.00;;;9.32;;
28774;SDS011;15926;51.348;6.596;2022-07-21T10:18:28;15.30;;;10.23;;
28774;SDS011;15926;51.348;6.596;2022-07-21T10:20:57;14.38;;;9.95;;
28774;SDS011;15926;51.348;6.596;2022-07-21T10:25:50;15.63;;;10.23;;
28774;SDS011;15926;51.348;6.596;2022-07-21T10:28:18;15.93;;;10.65;;
28774;SDS011;15926;51.348;6.596;2022-07-21T10:30:46;17.90;;;10.70;;
28774;SDS011;15926;51.348;6.596;2022-07-21T10:33:13;16.20;;;10.70;;
28774;SDS011;15926;51.348;6.596;2022-07-21T10:35:40;15.35;;;10.52;;
28774;SDS011;15926;51.348;6.596;2022-07-21T10:38:07;14.90;;;10.35;;
28774;SDS011;15926;51.348;6.596;2022-07-21T10:40:50;13.73;;;11.48;;
28774;SDS011;15926;51.348;6.596;2022-07-21T10:45:44;13.02;;;10.95;;
28774;SDS011;15926;51.348;6.596;2022-07-21T10:50:57;12.05;;;10.75;;
28774;SDS011;15926;51.348;6.596;2022-07-21T10:53:24;13.77;;;10.90;;
28774;SDS011;15926;51.348;6.596;2022-07-21T10:55:51;12.13;;;10.60;;
28774;SDS011;15926;51.348;6.596;2022-07-21T10:58:23;12.40;;;10.00;;
28774;SDS011;15926;51.348;6.596;2022-07-21T11:04:22;10.23;;;9.07;;
28774;SDS011;15926;51.348;6.596;2022-07-21T11:06:26;13.00;;;9.18;;
28774;SDS011;15926;51.348;6.596;2022-07-21T11:11:34;9.73;;;8.82;;
28774;SDS011;15926;51.348;6.596;2022-07-21T11:14:07;9.73;;;8.93;;
28774;SDS011;15926;51.348;6.596;2022-07-21T11:19:52;12.23;;;9.30;;
28774;SDS011;15926;51.348;6.596;2022-07-21T11:21:53;10.35;;;9.35;;
28774;SDS011;15926;51.348;6.596;2022-07-21T11:24:23;10.88;;;9.20;;
28774;SDS011;15926;51.348;6.596;2022-07-21T11:27:00;10.40;;;9.27;;
28774;SDS011;15926;51.348;6.596;2022-07-21T11:29:26;13.43;;;9.55;;
28774;SDS011;15926;51.348;6.596;2022-07-21T11:31:53;11.70;;;9.98;;
28774;SDS011;15926;51.348;6.596;2022-07-21T11:34:23;10.98;;;9.77;;
28774;SDS011;15926;51.348;6.596;2022-07-21T11:36:59;11.68;;;10.43;;
28774;SDS011;15926;51.348;6.596;2022-07-21T11:39:26;13.48;;;10.13;;
28774;SDS011;15926;51.348;6.596;2022-07-21T11:41:53;12.07;;;10.77;;
28774;SDS011;15926;51.348;6.596;2022-07-21T11:44:24;15.15;;;10.90;;
28774;SDS011;15926;51.348;6.596;2022-07-21T11:49:16;13.55;;;10.75;;
28774;SDS011;15926;51.348;6.596;2022-07-21T11:52:03;13.60;;;9.98;;
28774;SDS011;15926;51.348;6.596;2022-07-21T11:56:59;11.43;;;10.20;;
28774;SDS011;15926;51.348;6.596;2022-07-21T11:59:26;8.82;;;8.02;;
28774;SDS011;15926;51.348;6.596;2022-07-21T12:01:57;10.15;;;7.97;;
28774;SDS011;15926;51.348;6.596;2022-07-21T12:04:37;10.57;;;8.32;;
28774;SDS011;15926;51.348;6.596;2022-07-21T12:07:05;10.35;;;8.00;;
28774;SDS011;15926;51.348;6.596;2022-07-21T12:09:31;8.05;;;7.05;;
28774;SDS011;15926;51.348;6.596;2022-07-21T12:11:57;7.40;;;6.80;;
28774;SDS011;15926;51.348;6.596;2022-07-21T12:17:58;6.30;;;5.70;;
28774;SDS011;15926;51.348;6.596;2022-07-21T12:20:27;7.18;;;5.45;;
28774;SDS011;15926;51.348;6.596;2022-07-21T12:22:55;6.22;;;5.70;;
28774;SDS011;15926;51.348;6.596;2022-07-21T12:25:32;5.47;;;4.97;;
28774;SDS011;15926;51.348;6.596;2022-07-21T12:27:59;6.15;;;5.60;;
28774;SDS011;15926;51.348;6.596;2022-07-21T12:30:40;5.68;;;5.13;;
28774;SDS011;15926;51.348;6.596;2022-07-21T12:33:13;6.00;;;5.50;;
28774;SDS011;15926;51.348;6.596;2022-07-21T12:35:41;4.72;;;4.32;;
28774;SDS011;15926;51.348;6.596;2022-07-21T12:38:11;5.00;;;4.60;;
28774;SDS011;15926;51.348;6.596;2022-07-21T12:40:38;5.18;;;4.38;;
28774;SDS011;15926;51.348;6.596;2022-07-21T12:43:06;5.00;;;4.50;;
28774;SDS011;15926;51.348;6.596;2022-07-21T12:45:43;5.50;;;5.10;;
28774;SDS011;15926;51.348;6.596;2022-07-21T12:48:10;6.63;;;6.03;;
28774;SDS011;15926;51.348;6.596;2022-07-21T12:50:36;7.93;;;6.22;;
28774;SDS011;15926;51.348;6.596;2022-07-21T12:53:09;6.88;;;6.18;;
28774;SDS011;15926;51.348;6.596;2022-07-21T12:55:36;7.30;;;6.60;;
28774;SDS011;15926;51.348;6.596;2022-07-21T12:58:02;7.35;;;6.55;;
28774;SDS011;15926;51.348;6.596;2022-07-21T13:00:28;8.30;;;7.32;;
28774;SDS011;15926;51.348;6.596;2022-07-21T13:02:55;9.40;;;8.32;;
28774;SDS011;15926;51.348;6.596;2022-07-21T13:05:22;8.88;;;7.70;;
28774;SDS011;15926;51.348;6.596;2022-07-21T13:07:48;8.80;;;8.00;;
28774;SDS011;15926;51.348;6.596;2022-07-21T13:10:15;24.40;;;8.20;;
28774;SDS011;15926;51.348;6.596;2022-07-21T13:12:41;9.15;;;7.85;;
28774;SDS011;15926;51.348;6.596;2022-07-21T13:15:08;9.38;;;8.30;;
28774;SDS011;15926;51.348;6.596;2022-07-21T13:17:34;10.40;;;9.05;;
28774;SDS011;15926;51.348;6.596;2022-07-21T13:20:00;8.82;;;7.93;;
28774;SDS011;15926;51.348;6.596;2022-07-21T13:22:26;10.52;;;9.43;;
28774;SDS011;15926;51.348;6.596;2022-07-21T13:24:54;10.07;;;9.18;;
28774;SDS011;15926;51.348;6.596;2022-07-21T13:27:20;10.18;;;9.18;;
28774;SDS011;15926;51.348;6.596;2022-07-21T13:29:46;11.20;;;9.80;;
28774;SDS011;15926;51.348;6.596;2022-07-21T13:32:15;11.65;;;10.52;;
28774;SDS011;15926;51.348;6.596;2022-07-21T13:34:41;11.40;;;10.20;;
28774;SDS011;15926;51.348;6.596;2022-07-21T13:37:07;12.25;;;10.88;;
28774;SDS011;15926;51.348;6.596;2022-07-21T13:39:36;15.20;;;11.18;;
28774;SDS011;15926;51.348;6.596;2022-07-21T13:42:03;15.77;;;11.98;;
28774;SDS011;15926;51.348;6.596;2022-07-21T13:44:29;13.10;;;11.45;;
28774;SDS011;15926;51.348;6.596;2022-07-21T13:46:55;16.75;;;11.23;;
28774;SDS011;15926;51.348;6.596;2022-07-21T13:49:21;14.65;;;11.93;;
28774;SDS011;15926;51.348;6.596;2022-07-21T13:51:47;14.02;;;11.13;;
28774;SDS011;15926;51.348;6.596;2022-07-21T13:54:13;15.35;;;10.95;;
28774;SDS011;15926;51.348;6.596;2022-07-21T13:56:39;11.10;;;10.05;;
28774;SDS011;15926;51.348;6.596;2022-07-21T13:59:05;10.63;;;9.05;;
28774;SDS011;15926;51.348;6.596;2022-07-21T14:01:31;9.65;;;8.60;;
28774;SDS011;15926;51.348;6.596;2022-07-21T14:03:58;8.32;;;7.57;;
28774;SDS011;15926;51.348;6.596;2022-07-21T14:06:24;7.90;;;7.10;;
28774;SDS011;15926;51.348;6.596;2022-07-21T14:08:50;8.73;;;7.90;;
28774;SDS011;15926;51.348;6.596;2022-07-21T14:11:16;9.65;;;8.02;;
28774;SDS011;15926;51.348;6.596;2022-07-21T14:13:43;9.77;;;8.20;;
28774;SDS011;15926;51.348;6.596;2022-07-21T14:16:09;10.75;;;8.57;;
28774;SDS011;15926;51.348;6.596;2022-07-21T14:18:35;10.85;;;8.45;;
28774;SDS011;15926;51.348;6.596;2022-07-21T14:21:02;8.45;;;7.75;;
28774;SDS011;15926;51.348;6.596;2022-07-21T14:23:28;8.25;;;7.55;;
28774;SDS011;15926;51.348;6.596;2022-07-21T14:25:54;9.18;;;8.10;;
28774;SDS011;15926;51.348;6.596;2022-07-21T14:28:21;11.45;;;8.43;;
28774;SDS011;15926;51.348;6.596;2022-07-21T14:30:47;8.80;;;7.93;;
28774;SDS011;15926;51.348;6.596;2022-07-21T14:33:13;9.30;;;8.27;;
28774;SDS011;15926;51.348;6.596;2022-07-21T14:35:39;8.38;;;7.68;;
28774;SDS011;15926;51.348;6.596;2022-07-21T14:38:05;8.07;;;7.05;;
28774;SDS011;15926;51.348;6.596;2022-07-21T14:40:31;13.57;;;8.88;;
28774;SDS011;15926;51.348;6.596;2022-07-21T14:42:58;8.95;;;7.75;;
28774;SDS011;15926;51.348;6.596;2022-07-21T14:45:24;9.15;;;7.72;;
28774;SDS011;15926;51.348;6.596;2022-07-21T14:47:50;7.47;;;6.88;;
28774;SDS011;15926;51.348;6.596;2022-07-21T14:50:17;7.32;;;6.63;;
28774;SDS011;15926;51.348;6.596;2022-07-21T14:52:43;7.50;;;6.70;;
28774;SDS011;15926;51.348;6.596;2022-07-21T14:55:09;11.68;;;8.60;;
28774;SDS011;15926;51.348;6.596;2022-07-21T14:57:36;7.57;;;6.88;;
28774;SDS011;15926;51.348;6.596;2022-07-21T15:00:06;11.20;;;8.15;;
28774;SDS011;15926;51.348;6.596;2022-07-21T15:02:33;6.63;;;6.10;;
28774;SDS011;15926;51.348;6.596;2022-07-21T15:04:59;8.02;;;6.95;;